Time;durP1;ratioP1;P1;durP2;ratioP2;P2;SDS_P1;SDS_P2;PMS_P1;PMS_P2;Temp;Humidity;BMP_temperature;BMP_pressure;BME280_temperature;BME280_humidity;BME280_pressure;Samples;Min_cycle;Max_cycle;Signal;HPM_P1;HPM_P2
2021/07/05 00:00:13;;;;;;;;;2.00;2.00;;;;;23.89;48.94;100562.66;5057179;28;46059;-58
2021/07/05 00:02:39;;;;;;;;;4.00;2.25;;;;;23.89;48.82;100552.06;5056296;28;45807;-58
2021/07/05 00:05:07;;;;;;;;;2.50;2.50;;;;;23.89;49.29;100546.78;5055941;28;45241;-58
2021/07/05 00:07:32;;;;;;;;;6.00;3.00;;;;;23.87;48.50;100556.63;5057519;28;45284;-58
2021/07/05 00:09:58;;;;;;;;;4.50;2.00;;;;;23.89;48.63;100557.38;5057073;28;46328;-59
2021/07/05 00:12:23;;;;;;;;;3.75;3.75;;;;;23.87;48.87;100553.97;5057569;28;45205;-58
2021/07/05 00:14:49;;;;;;;;;3.00;3.00;;;;;23.87;48.64;100548.69;5057154;28;45402;-58
2021/07/05 00:17:15;;;;;;;;;2.00;2.00;;;;;23.87;48.64;100530.16;5057453;28;45281;-58
2021/07/05 00:19:40;;;;;;;;;2.00;2.00;;;;;23.86;48.47;100528.50;5056899;28;45377;-58
2021/07/05 00:22:05;;;;;;;;;2.25;2.25;;;;;23.87;48.32;100527.50;5057121;28;45338;-58
2021/07/05 00:24:31;;;;;;;;;2.00;2.00;;;;;23.87;48.69;100535.47;5057141;28;45613;-58
2021/07/05 00:26:56;;;;;;;;;3.00;3.00;;;;;23.86;48.61;100554.97;5057738;28;45492;-58
2021/07/05 00:29:23;;;;;;;;;2.00;2.00;;;;;23.86;48.92;100547.03;5057227;28;46115;-58
2021/07/05 00:31:48;;;;;;;;;2.50;2.50;;;;;23.87;48.39;100548.69;5056972;28;45361;-59
2021/07/05 00:34:13;;;;;;;;;3.75;2.25;;;;;23.87;48.37;100553.97;5057145;28;45276;-58
2021/07/05 00:36:39;;;;;;;;;2.50;2.00;;;;;23.85;48.38;100546.16;5055775;28;45202;-58
2021/07/05 00:39:04;;;;;;;;;3.50;3.50;;;;;23.87;48.74;100559.28;5055484;28;46610;-58
2021/07/05 00:41:30;;;;;;;;;2.75;2.75;;;;;23.85;48.58;100546.16;5056742;28;45349;-58
2021/07/05 00:43:57;;;;;;;;;2.00;2.00;;;;;23.84;48.29;100538.34;5057243;28;45347;-58
2021/07/05 00:46:23;;;;;;;;;2.25;2.00;;;;;23.86;48.32;100536.44;5057109;28;45394;-58
2021/07/05 00:48:49;;;;;;;;;2.00;2.00;;;;;23.85;48.04;100535.59;5056580;28;45438;-58
2021/07/05 00:51:16;;;;;;;;;2.75;2.75;;;;;23.85;48.61;100535.59;5056644;28;45323;-58
2021/07/05 00:53:42;;;;;;;;;5.50;2.50;;;;;23.86;48.40;100539.09;5056722;28;45346;-59
2021/07/05 00:56:08;;;;;;;;;3.00;3.00;;;;;23.85;48.17;100538.22;5056888;28;45458;-58
2021/07/05 00:58:33;;;;;;;;;2.50;2.50;;;;;23.84;48.40;100543.66;5056622;28;46046;-59
2021/07/05 01:00:58;;;;;;;;;4.50;3.50;;;;;23.85;48.16;100550.63;5056539;28;45447;-59
2021/07/05 01:03:23;;;;;;;;;3.00;3.00;;;;;23.83;48.14;100526.91;5057001;28;45371;-58
2021/07/05 01:05:49;;;;;;;;;3.25;3.25;;;;;23.84;48.13;100514.53;5056698;28;45661;-58
2021/07/05 01:08:14;;;;;;;;;3.00;2.75;;;;;23.85;48.30;100508.28;5056458;28;46933;-58
2021/07/05 01:10:40;;;;;;;;;3.75;3.25;;;;;23.84;48.14;100506.59;5056414;28;45244;-58
2021/07/05 01:13:05;;;;;;;;;4.00;4.00;;;;;23.82;47.92;100489.97;5056499;28;45338;-59
2021/07/05 01:15:32;;;;;;;;;2.50;2.50;;;;;23.82;48.33;100504.03;5056586;28;45281;-59
2021/07/05 01:18:03;;;;;;;;;3.75;3.75;;;;;23.83;47.85;100504.91;5056424;28;46452;-58
2021/07/05 01:20:30;;;;;;;;;2.75;2.75;;;;;23.83;47.74;100492.50;5056414;28;45413;-58
2021/07/05 01:22:57;;;;;;;;;2.25;2.25;;;;;23.82;47.96;100476.75;5056666;28;45231;-59
2021/07/05 01:25:26;;;;;;;;;2.00;2.00;;;;;23.82;48.41;100471.47;5056400;28;45224;-58
2021/07/05 01:27:53;;;;;;;;;3.75;3.75;;;;;23.82;47.86;100476.75;5056100;28;45895;-58
2021/07/05 01:30:21;;;;;;;;;5.75;3.25;;;;;23.81;47.97;100490.94;5056160;28;45798;-58
2021/07/05 01:32:47;;;;;;;;;2.00;2.00;;;;;23.81;47.91;100486.50;5056243;28;45461;-59
2021/07/05 01:35:13;;;;;;;;;2.75;2.75;;;;;23.77;48.16;100470.00;5056436;28;45240;-59
2021/07/05 01:37:38;;;;;;;;;3.00;3.00;;;;;23.79;47.74;100477.84;5055957;28;46262;-58
2021/07/05 01:40:07;;;;;;;;;3.00;3.00;;;;;23.78;48.08;100473.50;5055812;28;45426;-58
2021/07/05 01:42:32;;;;;;;;;3.00;3.00;;;;;23.79;47.79;100483.13;5054734;28;45340;-58
2021/07/05 01:44:58;;;;;;;;;2.75;2.00;;;;;23.78;47.96;100498.13;5056483;28;45374;-59
2021/07/05 01:47:23;;;;;;;;;2.00;2.00;;;;;23.76;47.75;100497.41;5055865;28;46356;-58
2021/07/05 01:49:49;;;;;;;;;4.00;3.00;;;;;23.80;47.99;100499.84;5057686;28;45265;-58
2021/07/05 01:52:15;;;;;;;;;1.75;1.75;;;;;23.78;47.97;100492.84;5059561;28;45309;-58
2021/07/05 01:54:41;;;;;;;;;2.00;2.00;;;;;23.79;47.75;100501.66;5059718;28;45287;-58
2021/07/05 01:57:24;;;;;;;;;3.00;3.00;;;;;23.77;47.91;100496.44;5059222;28;46109;-58
2021/07/05 01:59:54;;;;;;;;;2.50;2.00;;;;;23.77;47.97;100499.09;5059190;28;45624;-59
2021/07/05 02:02:19;;;;;;;;;3.00;2.00;;;;;23.76;47.67;100476.25;5059328;28;45465;-58
2021/07/05 02:04:46;;;;;;;;;2.00;2.00;;;;;23.77;47.88;100474.44;5059559;28;45508;-58
2021/07/05 02:07:11;;;;;;;;;4.00;2.00;;;;;23.78;47.67;100492.03;5041052;28;48307;-58
2021/07/05 02:09:36;;;;;;;;;3.50;3.50;;;;;23.77;47.60;100499.09;5058955;28;48111;-58
2021/07/05 02:12:03;;;;;;;;;2.00;2.00;;;;;23.78;47.85;100506.09;5059262;28;45468;-58
2021/07/05 02:14:28;;;;;;;;;2.00;2.00;;;;;23.76;47.50;100500.06;5059606;28;45545;-58
2021/07/05 02:16:54;;;;;;;;;2.00;2.00;;;;;23.77;47.85;100496.44;5059025;28;45621;-58
2021/07/05 02:19:19;;;;;;;;;2.50;2.50;;;;;23.77;47.79;100492.97;5058926;28;45284;-58
2021/07/05 02:21:44;;;;;;;;;3.25;3.00;;;;;23.76;47.56;100492.13;5059028;28;45251;-58
2021/07/05 02:24:10;;;;;;;;;2.25;2.00;;;;;23.77;47.88;100488.50;5059219;28;45370;-58
2021/07/05 02:26:35;;;;;;;;;3.50;3.00;;;;;23.77;47.29;100491.16;5058765;28;45315;-58
2021/07/05 02:29:00;;;;;;;;;3.00;2.25;;;;;23.77;47.85;100485.03;5059060;28;45275;-58
2021/07/05 02:31:26;;;;;;;;;2.25;2.25;;;;;23.77;47.68;100483.22;5058997;28;45301;-58
2021/07/05 02:33:52;;;;;;;;;2.00;2.00;;;;;23.77;47.41;100485.03;5057725;28;45574;-58
2021/07/05 02:36:17;;;;;;;;;3.75;2.75;;;;;23.75;47.76;100477.22;5058639;28;45342;-58
2021/07/05 02:38:42;;;;;;;;;2.50;2.50;;;;;23.75;47.42;100471.94;5057366;28;45833;-58
2021/07/05 02:41:07;;;;;;;;;4.00;3.00;;;;;23.77;47.53;100470.00;5058716;28;45651;-58
2021/07/05 02:43:33;;;;;;;;;2.25;2.25;;;;;23.77;48.16;100458.56;5059200;28;45548;-58
2021/07/05 02:45:59;;;;;;;;;2.00;2.00;;;;;23.77;47.84;100453.28;5058898;28;46012;-58
2021/07/05 02:48:27;;;;;;;;;2.00;2.00;;;;;23.77;47.85;100448.00;5057407;28;45872;-59
2021/07/05 02:50:57;;;;;;;;;2.00;1.00;;;;;23.76;47.85;100443.66;5058666;28;45370;-58
2021/07/05 02:53:23;;;;;;;;;5.00;3.00;;;;;23.74;47.17;100442.91;5058828;28;45262;-59
2021/07/05 02:55:49;;;;;;;;;1.25;1.25;;;;;23.76;47.80;100441.84;5058181;28;46103;-58
2021/07/05 02:58:15;;;;;;;;;3.00;2.00;;;;;23.76;47.82;100435.72;5058335;28;45437;-58
2021/07/05 03:00:44;;;;;;;;;3.00;3.00;;;;;23.76;47.82;100430.44;5057397;28;45425;-58
2021/07/05 03:03:10;;;;;;;;;4.00;2.00;;;;;23.75;47.69;100432.25;5058738;28;45509;-58
2021/07/05 03:05:35;;;;;;;;;1.75;1.75;;;;;23.75;47.56;100434.88;5058178;28;46309;-58
2021/07/05 03:08:01;;;;;;;;;3.75;2.50;;;;;23.73;47.56;100420.06;5058619;28;45259;-58
2021/07/05 03:10:35;;;;;;;;;2.00;2.00;;;;;23.73;47.83;100415.63;5058321;28;45294;-58
2021/07/05 03:13:06;;;;;;;;;2.00;2.00;;;;;23.75;47.68;100420.78;5058718;28;45176;-58
2021/07/05 03:15:32;;;;;;;;;4.25;2.00;;;;;23.74;47.67;100417.31;5058462;28;46061;-58
2021/07/05 03:17:57;;;;;;;;;3.50;1.50;;;;;23.74;47.86;100421.75;5057974;28;45405;-58
2021/07/05 03:20:26;;;;;;;;;1.25;1.25;;;;;23.73;47.44;100426.22;5058039;28;45405;-59
2021/07/05 03:22:52;;;;;;;;;2.00;2.00;;;;;23.74;47.63;100429.69;5057032;28;45246;-59
2021/07/05 03:25:20;;;;;;;;;2.00;2.00;;;;;23.73;47.63;100425.34;5057896;28;46957;-58
2021/07/05 03:27:45;;;;;;;;;2.00;2.00;;;;;23.72;47.70;100429.81;5058161;28;45438;-59
2021/07/05 03:30:13;;;;;;;;;2.75;2.75;;;;;23.72;47.50;100419.22;5058157;28;45267;-58
2021/07/05 03:32:39;;;;;;;;;1.25;1.25;;;;;23.72;47.65;100413.94;5058300;28;45501;-58
2021/07/05 03:35:07;;;;;;;;;3.00;3.00;;;;;23.73;47.72;100420.06;5058032;28;46164;-59
2021/07/05 03:37:32;;;;;;;;;2.00;2.00;;;;;23.72;47.87;100413.09;5058100;28;45643;-59
2021/07/05 03:39:57;;;;;;;;;3.00;2.00;;;;;23.71;47.72;100412.25;5057428;28;45235;-59
2021/07/05 03:42:23;;;;;;;;;2.00;2.00;;;;;23.70;47.92;100404.44;5057976;28;45458;-59
2021/07/05 03:44:48;;;;;;;;;2.00;2.00;;;;;23.71;48.07;100398.16;5057586;28;46415;-59
2021/07/05 03:47:13;;;;;;;;;2.00;2.00;;;;;23.71;47.85;100398.16;5057538;28;45806;-59
2021/07/05 03:49:40;;;;;;;;;2.00;2.00;;;;;23.71;47.64;100390.22;5057888;28;45553;-59
2021/07/05 03:52:05;;;;;;;;;1.50;1.50;;;;;23.70;48.16;100392.03;5058082;28;45354;-59
2021/07/05 03:54:31;;;;;;;;;1.25;1.25;;;;;23.62;47.82;100373.28;5056077;28;47166;-59
2021/07/05 03:56:56;;;;;;;;;3.25;1.25;;;;;23.69;47.57;100393.00;5022862;28;45804;-59
2021/07/05 03:59:21;;;;;;;;;4.00;2.50;;;;;23.68;47.65;100390.47;5057564;28;45891;-59
2021/07/05 04:01:47;;;;;;;;;4.00;3.25;;;;;23.69;47.73;100382.41;5057640;28;45432;-59
2021/07/05 04:04:13;;;;;;;;;3.50;3.50;;;;;23.68;47.87;100375.44;5057348;28;45477;-58
2021/07/05 04:06:38;;;;;;;;;4.00;2.00;;;;;23.68;48.16;100370.16;5057212;28;45393;-59
2021/07/05 04:09:05;;;;;;;;;2.00;2.00;;;;;23.67;47.79;100363.16;5057723;28;45564;-58
2021/07/05 04:11:31;;;;;;;;;1.50;1.50;;;;;23.68;48.08;100348.16;5057262;28;45607;-58
2021/07/05 04:13:57;;;;;;;;;2.00;2.00;;;;;23.67;48.12;100347.28;5057188;28;47410;-59
2021/07/05 04:16:24;;;;;;;;;2.25;2.25;;;;;23.65;48.18;100343.09;5057175;28;45292;-59
2021/07/05 04:18:49;;;;;;;;;1.75;1.75;;;;;23.65;48.07;100346.56;5057219;28;45398;-59
2021/07/05 04:21:15;;;;;;;;;0.25;0.25;;;;;23.67;48.11;100341.16;5057147;28;45540;-59
2021/07/05 04:23:40;;;;;;;;;2.75;2.00;;;;;23.66;48.04;100335.03;5057000;28;45948;-59
2021/07/05 04:26:05;;;;;;;;;2.75;2.75;;;;;23.65;48.29;100337.78;5057338;28;45406;-59
2021/07/05 04:28:31;;;;;;;;;2.50;2.50;;;;;23.66;48.00;100344.78;5057120;28;45664;-59
2021/07/05 04:30:56;;;;;;;;;1.00;1.00;;;;;23.64;48.21;100339.63;5055924;28;45598;-59
2021/07/05 04:33:22;;;;;;;;;3.00;2.00;;;;;23.65;47.86;100343.09;5056808;28;45358;-59
2021/07/05 04:35:47;;;;;;;;;3.00;3.00;;;;;23.64;48.00;100342.25;5056857;28;45377;-59
2021/07/05 04:38:13;;;;;;;;;3.00;1.00;;;;;23.62;47.95;100342.34;5056734;28;45441;-59
2021/07/05 04:40:40;;;;;;;;;2.00;2.00;;;;;23.63;48.37;100346.69;5055917;28;45702;-59
2021/07/05 04:43:06;;;;;;;;;2.25;2.00;;;;;23.62;48.13;100344.16;5056962;28;45295;-59
2021/07/05 04:45:33;;;;;;;;;2.00;2.00;;;;;23.59;47.99;100339.09;5056664;28;45305;-59
2021/07/05 04:48:01;;;;;;;;;2.00;2.00;;;;;23.61;48.21;100347.78;5056875;28;45467;-59
2021/07/05 04:50:27;;;;;;;;;3.00;2.00;;;;;23.61;48.36;100340.66;5056792;28;45568;-59
2021/07/05 04:52:53;;;;;;;;;2.00;2.00;;;;;23.59;47.96;100326.72;5056653;28;46099;-59
2021/07/05 04:55:20;;;;;;;;;2.00;2.00;;;;;23.59;48.15;100318.78;5056679;28;45436;-59
2021/07/05 04:57:47;;;;;;;;;2.75;2.00;;;;;23.58;48.17;100301.25;5056728;28;45284;-59
2021/07/05 05:00:22;;;;;;;;;2.00;2.00;;;;;23.58;47.98;100284.50;5056713;28;45330;-60
2021/07/05 05:02:48;;;;;;;;;2.25;2.25;;;;;23.58;47.99;100279.22;5056508;28;45390;-59
2021/07/05 05:05:14;;;;;;;;;3.00;2.00;;;;;23.57;48.24;100273.09;5056444;28;45430;-59
2021/07/05 05:07:39;;;;;;;;;2.00;2.00;;;;;23.56;48.42;100260.84;5055682;28;45387;-59
2021/07/05 05:10:10;;;;;;;;;1.00;1.00;;;;;23.55;48.06;100264.44;5056953;28;45645;-59
2021/07/05 05:12:36;;;;;;;;;1.25;1.25;;;;;23.55;48.15;100263.59;5056525;28;46526;-59
2021/07/05 05:15:03;;;;;;;;;3.25;3.25;;;;;23.54;48.02;100259.25;5055131;28;45423;-59
2021/07/05 05:17:28;;;;;;;;;3.00;1.00;;;;;23.53;48.11;100250.47;5056527;28;45398;-59
2021/07/05 05:19:53;;;;;;;;;2.00;1.00;;;;;23.53;48.86;100258.41;5056562;28;45564;-59
2021/07/05 05:22:19;;;;;;;;;1.25;1.25;;;;;23.53;48.33;100254.94;5056188;28;45525;-60
2021/07/05 05:24:44;;;;;;;;;2.00;2.00;;;;;23.54;48.08;100246.03;5058017;28;45455;-59
2021/07/05 05:27:10;;;;;;;;;1.00;1.00;;;;;23.53;48.49;100231.16;5060273;28;45476;-59
2021/07/05 05:29:36;;;;;;;;;1.50;1.50;;;;;23.53;48.29;100244.38;5059991;28;45515;-58
2021/07/05 05:32:02;;;;;;;;;1.00;1.00;;;;;23.50;48.36;100240.13;5059840;28;46138;-59
2021/07/05 05:34:28;;;;;;;;;2.50;2.00;;;;;23.53;48.53;100249.66;5059647;28;45304;-59
2021/07/05 05:36:53;;;;;;;;;2.00;2.00;;;;;23.53;48.33;100250.47;5060040;28;45348;-59
2021/07/05 05:39:18;;;;;;;;;2.00;2.00;;;;;23.53;48.35;100247.84;5059869;28;45585;-59
2021/07/05 05:41:44;;;;;;;;;2.25;2.25;;;;;23.53;48.31;100245.19;5059480;28;46118;-58
2021/07/05 05:44:09;;;;;;;;;1.75;1.75;;;;;23.50;48.50;100239.31;5059761;28;45270;-59
2021/07/05 05:46:35;;;;;;;;;2.00;2.00;;;;;23.53;48.28;100250.47;5059823;28;45370;-59
2021/07/05 05:49:02;;;;;;;;;4.00;3.00;;;;;23.55;48.37;100253.00;5059843;28;45581;-59
2021/07/05 05:51:37;;;;;;;;;4.00;2.00;;;;;23.54;48.37;100272.47;5059568;28;45628;-59
2021/07/05 05:54:04;;;;;;;;;2.00;2.00;;;;;23.54;48.44;100272.47;5075136;28;45303;-59
2021/07/05 05:56:33;;;;;;;;;2.00;2.00;;;;;23.55;48.21;100279.44;5059491;28;45303;-59
2021/07/05 05:59:05;;;;;;;;;3.00;3.00;;;;;23.55;48.10;100282.09;5075509;27;45334;-59
2021/07/05 06:01:32;;;;;;;;;2.00;2.00;;;;;23.56;48.29;100283.78;5059101;28;47017;-59
2021/07/05 06:03:58;;;;;;;;;2.25;2.25;;;;;23.55;48.28;100277.66;5059333;28;45854;-59
2021/07/05 06:06:24;;;;;;;;;1.00;1.00;;;;;23.55;48.39;100272.38;5059333;28;45277;-59
2021/07/05 06:08:50;;;;;;;;;2.00;2.00;;;;;23.55;48.21;100268.88;5059563;28;45228;-59
2021/07/05 06:11:15;;;;;;;;;2.00;2.00;;;;;23.54;48.26;100283.06;5059231;28;46381;-59
2021/07/05 06:13:41;;;;;;;;;2.00;2.00;;;;;23.56;48.43;100278.50;5059550;28;45323;-59
2021/07/05 06:16:07;;;;;;;;;2.50;2.50;;;;;23.56;48.62;100282.00;5059257;28;45450;-59
2021/07/05 06:18:32;;;;;;;;;3.00;3.00;;;;;23.57;48.43;100280.19;5059383;28;45353;-58
2021/07/05 06:20:58;;;;;;;;;1.25;1.25;;;;;23.57;48.36;100273.09;5058799;28;46290;-59
2021/07/05 06:23:27;;;;;;;;;3.50;2.00;;;;;23.58;48.49;100276.56;5057691;28;45312;-59
2021/07/05 06:25:53;;;;;;;;;1.25;1.25;;;;;23.55;48.10;100268.88;5058995;28;45413;-58
2021/07/05 06:28:20;;;;;;;;;2.75;2.75;;;;;23.58;48.56;100277.44;5057810;28;45313;-58
2021/07/05 06:30:46;;;;;;;;;2.00;2.00;;;;;23.57;48.37;100272.25;5057428;28;48139;-59
2021/07/05 06:33:12;;;;;;;;;2.00;2.00;;;;;23.58;48.17;100273.94;5059290;28;45233;-59
2021/07/05 06:35:38;;;;;;;;;3.00;3.00;;;;;23.56;48.33;100266.13;5058781;28;45315;-62
2021/07/05 06:38:04;;;;;;;;;3.00;1.00;;;;;23.56;48.27;100265.25;5058859;28;45304;-59
2021/07/05 06:40:30;;;;;;;;;2.75;2.00;;;;;23.58;48.64;100258.06;5058753;28;45331;-59
2021/07/05 06:42:55;;;;;;;;;2.75;2.25;;;;;23.57;48.29;100256.38;5057346;28;45545;-59
2021/07/05 06:45:21;;;;;;;;;4.00;3.25;;;;;23.59;48.42;100262.41;5058750;28;45363;-59
2021/07/05 06:47:47;;;;;;;;;2.50;2.50;;;;;23.59;48.10;100255.28;5058837;28;45637;-59
2021/07/05 06:50:12;;;;;;;;;2.00;2.00;;;;;23.60;48.29;100240.28;5058769;28;45979;-59
2021/07/05 06:52:37;;;;;;;;;3.75;3.75;;;;;23.60;48.16;100237.63;5057327;28;45383;-59
2021/07/05 06:55:04;;;;;;;;;3.75;3.75;;;;;23.62;48.29;100256.88;5058656;28;45442;-58
2021/07/05 06:57:30;;;;;;;;;2.00;2.00;;;;;23.62;48.45;100254.22;5057444;28;45269;-59
2021/07/05 06:59:57;;;;;;;;;3.75;3.75;;;;;23.62;48.15;100259.53;5056824;28;46356;-59
2021/07/05 07:02:22;;;;;;;;;4.25;2.75;;;;;23.62;48.06;100270.94;5058452;28;45649;-59
2021/07/05 07:04:47;;;;;;;;;3.00;3.00;;;;;23.62;47.94;100270.94;5057239;28;45345;-59
2021/07/05 07:07:13;;;;;;;;;3.00;3.00;;;;;23.62;48.39;100270.94;5058918;28;45530;-59
2021/07/05 07:09:38;;;;;;;;;3.75;2.25;;;;;23.62;48.46;100270.94;5058305;28;45260;-59
2021/07/05 07:12:04;;;;;;;;;3.00;3.00;;;;;23.60;48.10;100270.19;5058355;28;45251;-59
2021/07/05 07:14:29;;;;;;;;;5.50;5.50;;;;;23.62;48.09;100275.38;5058243;28;45441;-59
2021/07/05 07:17:03;;;;;;;;;3.00;3.00;;;;;23.60;48.20;100272.84;5058552;28;45422;-59
2021/07/05 07:19:29;;;;;;;;;3.50;3.50;;;;;23.62;48.69;100270.94;5057965;28;47036;-59
2021/07/05 07:21:54;;;;;;;;;4.50;4.50;;;;;23.62;48.34;100272.75;5058137;28;45504;-59
2021/07/05 07:24:20;;;;;;;;;4.00;4.00;;;;;23.63;48.43;100277.06;5058130;28;45276;-59
2021/07/05 07:26:47;;;;;;;;;4.00;2.00;;;;;23.62;48.50;100278.03;5058514;28;45330;-59
2021/07/05 07:29:13;;;;;;;;;3.00;3.00;;;;;23.61;48.00;100276.34;5058217;28;46359;-59
2021/07/05 07:31:39;;;;;;;;;5.50;4.50;;;;;23.63;48.32;100277.06;5058049;28;45329;-58
2021/07/05 07:34:05;;;;;;;;;3.25;3.25;;;;;23.63;48.66;100277.06;5058022;28;45374;-59
2021/07/05 07:36:31;;;;;;;;;3.25;3.25;;;;;23.64;48.38;100281.41;5058120;28;45514;-59
2021/07/05 07:39:03;;;;;;;;;5.50;5.00;;;;;23.63;48.15;100288.50;5057548;28;46817;-59
2021/07/05 07:41:31;;;;;;;;;4.00;4.00;;;;;23.65;48.50;100291.00;5057640;28;45421;-58
2021/07/05 07:43:57;;;;;;;;;4.00;4.00;;;;;23.63;48.52;100288.50;5057899;28;45355;-59
2021/07/05 07:46:23;;;;;;;;;4.00;3.25;;;;;23.64;48.53;100289.34;5057564;28;45361;-59
2021/07/05 07:48:48;;;;;;;;;7.00;3.25;;;;;23.64;48.57;100289.34;5057287;28;46519;-58
2021/07/05 07:51:14;;;;;;;;;3.25;3.25;;;;;23.63;48.21;100293.78;5057913;28;45214;-59
2021/07/05 07:53:39;;;;;;;;;4.00;4.00;;;;;23.65;48.73;100293.66;5057659;28;45216;-58
2021/07/05 07:56:04;;;;;;;;;4.50;3.00;;;;;23.65;48.21;100291.00;5057802;28;45620;-59
2021/07/05 07:58:30;;;;;;;;;5.00;4.25;;;;;23.65;48.29;100280.41;5057241;28;46850;-59
2021/07/05 08:00:55;;;;;;;;;3.75;3.75;;;;;23.66;48.36;100270.69;5057253;28;45436;-59
2021/07/05 08:03:20;;;;;;;;;3.75;3.25;;;;;23.65;48.45;100272.47;5057462;28;45422;-59
2021/07/05 08:05:46;;;;;;;;;2.25;2.25;;;;;23.67;48.46;100262.63;5057931;28;45427;-59
2021/07/05 08:08:13;;;;;;;;;4.00;4.00;;;;;23.65;48.72;100263.72;5055933;28;47466;-59
2021/07/05 08:10:38;;;;;;;;;3.25;3.25;;;;;23.68;48.28;100266.97;5057246;28;45332;-58
2021/07/05 08:13:05;;;;;;;;;2.00;2.00;;;;;23.69;48.37;100266.00;5057355;28;45394;-58
2021/07/05 08:15:30;;;;;;;;;3.00;3.00;;;;;23.70;48.51;100267.69;5057592;28;45273;-59
2021/07/05 08:17:55;;;;;;;;;3.75;3.75;;;;;23.71;48.17;100260.59;5057067;28;46248;-59
2021/07/05 08:20:21;;;;;;;;;3.75;3.75;;;;;23.70;48.67;100257.09;5057045;28;45288;-59
2021/07/05 08:22:52;;;;;;;;;6.00;4.50;;;;;23.73;48.36;100262.16;5057525;28;45473;-59
2021/07/05 08:25:18;;;;;;;;;3.75;3.75;;;;;23.73;48.42;100261.31;5057644;28;45314;-59
2021/07/05 08:27:44;;;;;;;;;5.00;4.00;;;;;23.74;48.64;100279.72;5056966;28;45379;-59
2021/07/05 08:30:09;;;;;;;;;3.00;3.00;;;;;23.76;48.41;100274.31;5056745;28;45420;-59
2021/07/05 08:32:35;;;;;;;;;3.25;3.25;;;;;23.77;48.33;100283.94;5057035;28;45161;-59
2021/07/05 08:35:01;;;;;;;;;5.25;4.25;;;;;23.76;48.38;100287.53;5057259;28;45369;-59
2021/07/05 08:37:27;;;;;;;;;4.50;4.50;;;;;23.78;48.53;100291.75;5056787;28;45501;-58
2021/07/05 08:39:52;;;;;;;;;3.00;3.00;;;;;23.78;48.24;100289.09;5056611;28;45328;-59
2021/07/05 08:42:22;;;;;;;;;3.25;3.25;;;;;23.77;48.40;100284.75;5057211;28;45323;-59
2021/07/05 08:44:48;;;;;;;;;3.50;3.50;;;;;23.80;48.17;100282.84;5057358;28;45304;-58
2021/07/05 08:47:13;;;;;;;;;2.75;2.75;;;;;23.81;48.55;100284.53;5056594;28;45486;-59
2021/07/05 08:49:39;;;;;;;;;4.50;4.50;;;;;23.80;48.54;100275.75;5056717;28;45386;-59
2021/07/05 08:52:05;;;;;;;;;3.00;3.00;;;;;23.81;48.26;100274.81;5055538;28;45230;-59
2021/07/05 08:54:30;;;;;;;;;3.00;3.00;;;;;23.82;48.44;100273.00;5056940;28;45233;-59
2021/07/05 08:56:55;;;;;;;;;4.00;4.00;;;;;23.83;48.40;100274.66;5056675;28;45359;-59
2021/07/05 08:59:21;;;;;;;;;5.00;4.00;;;;;23.83;48.35;100277.31;5055746;28;45237;-59
2021/07/05 09:01:47;;;;;;;;;4.00;4.00;;;;;23.82;48.65;100276.47;5056995;28;45643;-59
2021/07/05 09:04:14;;;;;;;;;3.75;3.25;;;;;23.83;48.47;100274.66;5056808;28;45584;-59
2021/07/05 09:07:06;;;;;;;;;3.50;3.50;;;;;23.83;48.47;100275.50;5056341;28;46437;-59
2021/07/05 09:09:32;;;;;;;;;4.00;4.00;;;;;23.82;48.61;100275.63;5056417;28;45245;-59
2021/07/05 09:12:05;;;;;;;;;3.00;2.25;;;;;23.83;48.07;100283.44;5056528;28;45406;-59
2021/07/05 09:14:31;;;;;;;;;3.75;3.75;;;;;23.83;48.61;100285.25;5056736;28;45221;-59
2021/07/05 09:16:57;;;;;;;;;3.25;3.25;;;;;23.83;48.24;100282.63;5056294;28;45384;-59
2021/07/05 09:19:25;;;;;;;;;4.00;3.00;;;;;23.83;48.50;100293.19;5056477;28;45797;-59
2021/07/05 09:21:59;;;;;;;;;2.50;2.50;;;;;23.82;48.43;100296.81;5055479;28;45426;-59
2021/07/05 09:24:41;;;;;;;;;2.50;2.50;;;;;23.84;48.47;100302.81;5056777;28;45249;-59
2021/07/05 09:27:10;;;;;;;;;4.50;4.50;;;;;23.84;48.65;100306.31;5056140;28;47048;-59
2021/07/05 09:29:39;;;;;;;;;3.75;3.00;;;;;23.83;48.60;100296.66;5056160;28;45363;-59
2021/07/05 09:32:07;;;;;;;;;2.25;2.25;;;;;23.84;48.63;100300.19;5056324;28;45399;-59
2021/07/05 09:34:42;;;;;;;;;2.50;2.50;;;;;23.84;48.63;100302.81;5056417;28;45490;-59
2021/07/05 09:37:33;;;;;;;;;4.25;4.25;;;;;23.84;48.72;100301.00;5055885;28;45236;-59
2021/07/05 09:40:01;;;;;;;;;4.25;4.25;;;;;23.84;48.61;100305.47;5056036;28;45398;-60
2021/07/05 09:42:27;;;;;;;;;4.00;3.00;;;;;23.81;48.60;100292.47;5056112;28;45488;-58
2021/07/05 09:44:55;;;;;;;;;4.00;3.50;;;;;23.85;48.90;100301.88;5056703;28;45507;-58
2021/07/05 09:47:24;;;;;;;;;3.00;3.00;;;;;23.86;48.51;100303.56;5056221;28;47021;-59
2021/07/05 09:49:50;;;;;;;;;2.00;2.00;;;;;23.84;48.55;100297.53;5056037;28;45616;-59
2021/07/05 09:52:24;;;;;;;;;3.00;3.00;;;;;23.85;48.38;100297.41;5056163;28;45286;-59
2021/07/05 09:54:55;;;;;;;;;3.00;3.00;;;;;23.86;48.65;100298.25;5056649;28;45400;-58
2021/07/05 09:57:25;;;;;;;;;3.00;3.00;;;;;23.84;48.67;100305.47;5054834;28;47679;-59
2021/07/05 09:59:57;;;;;;;;;2.00;2.00;;;;;23.85;48.68;100300.03;5055954;28;45628;-59
2021/07/05 10:02:23;;;;;;;;;2.75;2.25;;;;;23.84;48.27;100308.94;5056232;28;45395;-59
2021/07/05 10:04:49;;;;;;;;;3.00;3.00;;;;;23.87;48.77;100310.50;5055916;28;45330;-59
2021/07/05 10:07:16;;;;;;;;;2.00;2.00;;;;;23.88;48.67;100312.19;5055604;28;46701;-59
2021/07/05 10:09:47;;;;;;;;;1.75;1.75;;;;;23.86;48.72;100312.31;5055949;28;45675;-59
2021/07/05 10:12:29;;;;;;;;;3.00;3.00;;;;;23.87;48.76;100321.09;5059283;28;45483;-58
2021/07/05 10:14:59;;;;;;;;;6.00;3.25;;;;;23.86;48.48;100322.91;5059668;28;45387;-59
2021/07/05 10:17:27;;;;;;;;;3.75;3.50;;;;;23.86;48.61;100320.25;5059254;28;47277;-59
2021/07/05 10:19:53;;;;;;;;;1.25;1.25;;;;;23.84;48.43;100302.81;5059207;28;45641;-59
2021/07/05 10:22:19;;;;;;;;;2.00;2.00;;;;;23.87;48.50;100307.84;5057792;28;45354;-59
2021/07/05 10:24:46;;;;;;;;;2.00;2.00;;;;;23.85;48.58;100296.56;5059189;28;45492;-59
2021/07/05 10:27:13;;;;;;;;;1.75;1.75;;;;;23.89;48.33;100303.28;5058981;28;45492;-59
2021/07/05 10:29:39;;;;;;;;;2.00;2.00;;;;;23.90;48.76;100304.97;5058981;28;45347;-59
2021/07/05 10:32:06;;;;;;;;;2.00;2.00;;;;;23.91;48.74;100299.59;5058967;28;45375;-59
2021/07/05 10:34:32;;;;;;;;;2.25;2.00;;;;;23.92;48.49;100308.34;5059125;28;45323;-59
2021/07/05 10:37:00;;;;;;;;;2.00;2.00;;;;;23.94;48.48;100311.72;5058775;28;46095;-59
2021/07/05 10:39:27;;;;;;;;;2.25;2.25;;;;;23.95;48.71;100321.38;5058917;28;45367;-59
2021/07/05 10:41:52;;;;;;;;;1.50;1.50;;;;;23.98;48.44;100328.22;5059212;28;45348;-59
2021/07/05 10:44:21;;;;;;;;;2.25;2.25;;;;;23.98;48.83;100333.53;5058976;28;45248;-59
2021/07/05 10:46:54;;;;;;;;;1.50;1.50;;;;;23.98;49.09;100336.19;5058555;28;45392;-59
2021/07/05 10:49:32;;;;;;;;;3.00;2.75;;;;;23.98;48.28;100342.28;5058339;28;45343;-59
2021/07/05 10:52:04;;;;;;;;;2.00;2.00;;;;;23.99;48.50;100340.50;5058834;28;45331;-59
2021/07/05 10:54:45;;;;;;;;;2.00;2.00;;;;;23.99;48.84;100335.22;5057504;28;45428;-58
2021/07/05 10:57:11;;;;;;;;;2.25;1.50;;;;;24.00;48.62;100342.19;5058241;28;45441;-58
2021/07/05 10:59:40;;;;;;;;;2.75;2.75;;;;;24.02;48.52;100346.41;5058320;28;45730;-58
2021/07/05 11:02:44;;;;;;;;;1.75;1.75;;;;;24.02;48.97;100335.81;5058464;28;45316;-58
2021/07/05 11:05:45;;;;;;;;;4.50;2.00;;;;;24.02;48.71;100330.53;5058609;28;45418;-58
2021/07/05 11:08:38;;;;;;;;;2.00;2.00;;;;;24.02;48.78;100330.53;5058013;28;46984;-58
2021/07/05 11:11:17;;;;;;;;;4.50;4.25;;;;;24.02;48.71;100346.41;5056971;28;45395;-58
2021/07/05 11:13:44;;;;;;;;;3.25;3.25;;;;;24.02;49.03;100342.94;5058271;28;45332;-58
2021/07/05 11:16:10;;;;;;;;;3.00;3.00;;;;;24.03;49.07;100341.97;5058397;28;45477;-57
2021/07/05 11:18:35;;;;;;;;;4.00;2.00;;;;;24.01;49.02;100326.19;5058229;28;46252;-58
2021/07/05 11:21:01;;;;;;;;;5.33;3.00;;;;;24.02;49.08;100333.16;5056291;28;45403;-58
2021/07/05 11:23:59;;;;;;;;;3.75;3.00;;;;;24.05;49.43;100327.66;5056524;28;45374;-58